createdAt,value
2019-06-20T00:01:50.690Z,47.20
2019-06-20T00:04:20.430Z,46.80
2019-06-20T00:06:50.376Z,47.00
2019-06-20T00:09:20.112Z,47.30
2019-06-20T00:11:49.853Z,47.50
2019-06-20T00:14:19.726Z,47.70
2019-06-20T00:16:50.260Z,48.50
2019-06-20T00:19:20.039Z,48.20
2019-06-20T00:21:49.886Z,48.10
2019-06-20T00:24:19.684Z,48.40
2019-06-20T00:26:49.770Z,49.20
2019-06-20T00:29:19.675Z,51.60
2019-06-20T00:31:49.367Z,55.70
2019-06-20T00:34:19.082Z,57.10
2019-06-20T00:36:51.279Z,60.50
2019-06-20T00:39:20.508Z,60.80
2019-06-20T00:41:50.220Z,60.20
2019-06-20T00:44:19.954Z,60.30
2019-06-20T00:46:50.038Z,59.70
2019-06-20T00:49:19.790Z,60.90
2019-06-20T00:51:50.518Z,61.00
2019-06-20T00:54:20.220Z,62.40
2019-06-20T00:56:50.157Z,63.20
2019-06-20T00:59:19.994Z,62.80
2019-06-20T01:01:49.767Z,61.80
2019-06-20T01:04:19.546Z,60.90
2019-06-20T01:06:49.175Z,63.70
2019-06-20T01:09:19.035Z,67.40
2019-06-20T01:11:48.724Z,70.60
2019-06-20T01:14:18.432Z,69.10
2019-06-20T01:16:48.145Z,67.60
2019-06-20T01:19:17.902Z,62.30
2019-06-20T01:21:47.636Z,60.50
2019-06-20T01:24:17.300Z,57.40
2019-06-20T01:26:47.041Z,57.30
2019-06-20T01:29:16.764Z,56.80
2019-06-20T01:31:46.509Z,56.40
2019-06-20T01:34:16.216Z,57.30
2019-06-20T01:36:45.935Z,57.90
2019-06-20T01:39:15.741Z,57.80
2019-06-20T01:41:45.529Z,58.20
2019-06-20T01:44:15.683Z,58.60
2019-06-20T01:46:45.370Z,59.40
2019-06-20T01:49:15.357Z,59.90
2019-06-20T01:51:45.207Z,60.30
2019-06-20T01:54:14.883Z,61.50
2019-06-20T01:56:44.593Z,64.00
2019-06-20T01:59:14.295Z,66.10
2019-06-20T02:01:44.223Z,65.30
2019-06-20T02:04:13.921Z,66.70
2019-06-20T02:06:43.881Z,66.60
2019-06-20T02:09:13.701Z,67.10
2019-06-20T02:11:43.676Z,67.80
2019-06-20T02:14:13.673Z,67.30
2019-06-20T02:16:43.416Z,68.40
2019-06-20T02:19:13.205Z,68.00
2019-06-20T02:21:43.051Z,68.60
2019-06-20T02:24:14.882Z,68.80
2019-06-20T02:26:44.589Z,69.00
2019-06-20T02:29:14.458Z,68.90
2019-06-20T02:31:44.525Z,69.40
2019-06-20T02:34:14.426Z,70.40
2019-06-20T02:36:44.086Z,70.40
2019-06-20T02:39:13.882Z,70.40
2019-06-20T02:41:43.659Z,70.40
2019-06-20T02:44:29.269Z,71.00
2019-06-20T02:46:44.959Z,71.20
2019-06-20T02:49:14.743Z,71.90
2019-06-20T02:51:44.559Z,71.70
2019-06-20T02:54:14.419Z,71.90
2019-06-20T02:56:44.619Z,72.60
2019-06-20T02:59:14.300Z,73.30
2019-06-20T03:01:44.172Z,73.80
2019-06-20T03:04:13.833Z,74.00
2019-06-20T03:06:43.701Z,74.60
2019-06-20T03:09:13.364Z,73.80
2019-06-20T03:11:43.048Z,74.40
2019-06-20T03:14:12.807Z,74.90
2019-06-20T03:16:42.586Z,75.40
2019-06-20T03:19:12.313Z,74.80
2019-06-20T03:21:42.083Z,75.60
2019-06-20T03:24:11.897Z,73.90
2019-06-20T03:26:41.635Z,73.10
2019-06-20T03:29:11.336Z,73.20
2019-06-20T03:31:41.119Z,73.30
2019-06-20T03:34:10.834Z,72.10
2019-06-20T03:36:40.580Z,69.40
2019-06-20T03:39:11.255Z,69.30
2019-06-20T03:41:41.167Z,70.50
2019-06-20T03:44:12.304Z,71.40
2019-06-20T03:46:43.055Z,72.40
2019-06-20T03:49:12.727Z,74.10
2019-06-20T03:51:42.645Z,74.30
2019-06-20T03:54:12.492Z,74.20
2019-06-20T03:56:42.353Z,74.30
2019-06-20T03:59:12.133Z,74.70
2019-06-20T04:01:41.909Z,72.50
2019-06-20T04:04:12.024Z,70.20
2019-06-20T04:06:41.821Z,68.50
2019-06-20T04:09:11.613Z,68.70
2019-06-20T04:11:41.341Z,67.10
2019-06-20T04:14:11.184Z,64.90
2019-06-20T04:16:40.888Z,59.80
2019-06-20T04:19:10.544Z,59.20
2019-06-20T04:21:40.322Z,55.50
2019-06-20T04:24:10.044Z,55.30
2019-06-20T04:26:39.907Z,52.70
2019-06-20T04:29:09.578Z,52.10
2019-06-20T04:31:39.496Z,53.20
2019-06-20T04:34:09.296Z,50.20
2019-06-20T04:36:39.072Z,50.80
2019-06-20T04:39:18.740Z,51.40
2019-06-20T04:41:40.896Z,47.10
2019-06-20T04:44:10.612Z,49.60
2019-06-20T04:46:46.194Z,45.80
2019-06-20T04:49:19.512Z,47.40
2019-06-20T04:51:47.366Z,45.70
2019-06-20T04:54:17.024Z,44.10
2019-06-20T04:56:46.770Z,43.80
2019-06-20T04:59:16.524Z,40.00
2019-06-20T05:01:46.255Z,40.70
2019-06-20T05:04:16.084Z,42.20
2019-06-20T05:06:49.431Z,40.90
2019-06-20T05:09:19.356Z,42.30
2019-06-20T05:11:49.034Z,42.60
2019-06-20T05:14:19.117Z,43.10
2019-06-20T05:16:48.958Z,37.30
2019-06-20T05:19:18.603Z,40.20
2019-06-20T05:21:48.384Z,34.80
2019-06-20T05:24:18.213Z,39.00
2019-06-20T05:26:48.006Z,41.60
2019-06-20T05:29:17.788Z,44.10
2019-06-20T05:31:47.436Z,46.70
2019-06-20T05:34:17.157Z,46.60
2019-06-20T05:36:46.868Z,45.50
2019-06-20T05:39:16.654Z,45.70
2019-06-20T05:41:46.498Z,45.40
2019-06-20T05:44:16.348Z,46.70
2019-06-20T05:46:46.171Z,48.00
2019-06-20T05:49:15.849Z,47.20
2019-06-20T05:51:45.575Z,47.50
2019-06-20T05:54:15.436Z,48.40
2019-06-20T05:56:45.447Z,50.20
2019-06-20T05:59:15.147Z,50.90
2019-06-20T06:01:45.013Z,53.00
2019-06-20T06:04:15.884Z,54.30
2019-06-20T06:06:45.980Z,56.10
2019-06-20T06:09:16.011Z,56.60
2019-06-20T06:11:46.004Z,57.30
2019-06-20T06:14:15.945Z,56.80
2019-06-20T06:16:45.856Z,58.20
2019-06-20T06:19:16.704Z,58.80
2019-06-20T06:21:46.776Z,59.00
2019-06-20T06:24:16.876Z,60.30
2019-06-20T06:26:46.786Z,60.30
2019-06-20T06:29:16.882Z,61.70
2019-06-20T06:31:46.744Z,65.80
2019-06-20T06:34:22.242Z,67.60
2019-06-20T06:36:51.913Z,72.30
2019-06-20T06:39:22.845Z,77.30
2019-06-20T06:41:52.568Z,77.80
2019-06-20T06:44:22.650Z,80.60
2019-06-20T06:46:57.565Z,82.30
2019-06-20T06:49:24.100Z,81.00
2019-06-20T06:51:53.889Z,82.30
2019-06-20T06:54:23.676Z,81.40
2019-06-20T06:56:53.438Z,82.90
2019-06-20T06:59:23.177Z,83.60
2019-06-20T07:01:52.910Z,79.90
2019-06-20T07:04:22.710Z,80.10
2019-06-20T07:06:52.451Z,80.20
2019-06-20T07:09:22.183Z,78.80
2019-06-20T07:11:52.285Z,78.10
2019-06-20T07:14:22.017Z,79.20
2019-06-20T07:17:00.161Z,77.30
2019-06-20T07:19:24.475Z,76.80
2019-06-20T07:21:54.247Z,76.40
2019-06-20T07:24:24.019Z,78.60
2019-06-20T07:26:53.691Z,74.50
2019-06-20T07:29:23.598Z,74.10
2019-06-20T07:31:53.354Z,72.60
2019-06-20T07:34:23.098Z,72.30
2019-06-20T07:36:52.869Z,75.30
2019-06-20T07:39:22.591Z,75.50
2019-06-20T07:41:52.436Z,74.80
2019-06-20T07:44:22.422Z,71.80
2019-06-20T07:46:52.180Z,69.50
2019-06-20T07:49:21.846Z,68.80
2019-06-20T07:51:51.688Z,71.80
2019-06-20T07:54:21.488Z,73.80
2019-06-20T07:56:51.421Z,75.30
2019-06-20T07:59:21.154Z,74.80
2019-06-20T08:01:50.934Z,75.80
2019-06-20T08:04:20.597Z,78.40
2019-06-20T08:06:50.389Z,74.20
2019-06-20T08:09:44.780Z,75.80
2019-06-20T08:12:10.948Z,74.80
2019-06-20T08:14:40.781Z,75.40
2019-06-20T08:17:10.816Z,72.80
2019-06-20T08:19:42.114Z,71.30
2019-06-20T08:22:11.779Z,73.70
2019-06-20T08:24:42.443Z,71.70
2019-06-20T08:27:14.896Z,72.50
2019-06-20T08:29:43.661Z,74.60
2019-06-20T08:32:13.494Z,72.10
2019-06-20T08:34:43.148Z,69.30
2019-06-20T08:37:12.974Z,68.50
2019-06-20T08:39:42.836Z,68.20
2019-06-20T08:42:12.629Z,69.30
2019-06-20T08:44:42.396Z,67.20
2019-06-20T08:47:12.311Z,63.70
2019-06-20T08:49:42.047Z,62.40
2019-06-20T08:52:11.872Z,65.10
2019-06-20T08:54:41.560Z,62.70
2019-06-20T08:57:11.592Z,62.00
2019-06-20T08:59:41.655Z,62.00
2019-06-20T09:02:12.369Z,62.90
2019-06-20T09:04:42.100Z,61.00
2019-06-20T09:07:11.842Z,60.90
2019-06-20T09:09:42.165Z,59.90
2019-06-20T09:12:11.886Z,61.90
2019-06-20T09:14:41.585Z,60.60
2019-06-20T09:17:11.371Z,61.50
2019-06-20T09:19:41.153Z,64.00
2019-06-20T09:22:12.616Z,67.50
2019-06-20T09:24:43.374Z,68.00
2019-06-20T09:27:13.065Z,67.60
2019-06-20T09:29:42.854Z,70.50
2019-06-20T09:32:12.770Z,69.60
2019-06-20T09:34:42.662Z,67.70
2019-06-20T09:37:12.681Z,65.20
2019-06-20T09:39:42.676Z,64.60
2019-06-20T09:42:12.336Z,63.10
2019-06-20T09:44:42.266Z,61.30
2019-06-20T09:47:21.652Z,59.00
2019-06-20T09:49:55.211Z,59.00
2019-06-20T09:52:22.943Z,58.60
2019-06-20T09:54:53.921Z,59.70
2019-06-20T09:57:24.131Z,59.40
2019-06-20T10:00:05.664Z,58.00
2019-06-20T10:02:25.368Z,59.40
2019-06-20T10:04:56.617Z,56.90
2019-06-20T10:07:26.604Z,55.80
2019-06-20T10:09:56.501Z,54.20
2019-06-20T10:12:26.361Z,56.90
2019-06-20T10:14:56.361Z,58.30
2019-06-20T10:17:26.465Z,55.90
2019-06-20T10:19:58.042Z,57.30
2019-06-20T10:22:31.288Z,57.10
2019-06-20T10:25:01.061Z,57.20
2019-06-20T10:27:30.929Z,55.00
2019-06-20T10:30:13.478Z,56.00
2019-06-20T10:32:32.447Z,54.30
2019-06-20T10:35:02.248Z,54.40
2019-06-20T10:37:32.017Z,55.10
2019-06-20T10:40:01.956Z,56.10
2019-06-20T10:42:31.841Z,56.80
2019-06-20T10:45:03.076Z,58.20
2019-06-20T10:47:36.025Z,57.50
2019-06-20T10:50:05.868Z,59.10
2019-06-20T10:52:35.742Z,59.90
2019-06-20T10:55:06.447Z,58.20
2019-06-20T10:57:36.230Z,58.10
2019-06-20T11:00:09.670Z,57.60
2019-06-20T11:02:41.680Z,56.50
2019-06-20T11:05:13.236Z,55.60
2019-06-20T11:07:43.842Z,56.30
2019-06-20T11:10:15.579Z,54.80
2019-06-20T11:12:52.342Z,53.40
2019-06-20T11:15:18.898Z,55.10
2019-06-20T11:17:48.761Z,56.10
2019-06-20T11:20:19.010Z,55.40
2019-06-20T11:22:48.782Z,57.70
2019-06-20T11:25:19.576Z,55.70
2019-06-20T11:27:49.640Z,55.20
2019-06-20T11:30:21.574Z,54.70
2019-06-20T11:32:51.460Z,55.30
2019-06-20T11:35:21.560Z,55.50
2019-06-20T11:37:51.447Z,54.00
2019-06-20T11:40:22.092Z,52.60
2019-06-20T11:42:51.923Z,53.10
2019-06-20T11:45:22.311Z,51.30
2019-06-20T11:47:52.260Z,51.30
2019-06-20T11:50:22.526Z,50.60
2019-06-20T11:52:52.307Z,52.60
2019-06-20T11:55:23.603Z,51.60
2019-06-20T11:57:53.442Z,50.60
2019-06-20T12:00:24.529Z,51.30
2019-06-20T12:02:54.562Z,52.60
2019-06-20T12:05:24.841Z,51.50
2019-06-20T12:07:54.587Z,52.40
2019-06-20T12:10:24.711Z,52.80
2019-06-20T12:12:54.456Z,51.40
2019-06-20T12:15:24.625Z,49.50
2019-06-20T12:17:55.234Z,49.20
2019-06-20T12:20:25.182Z,49.20
2019-06-20T12:22:56.392Z,48.30
2019-06-20T12:25:26.506Z,46.80
2019-06-20T12:27:57.582Z,46.90
2019-06-20T12:30:27.871Z,45.40
2019-06-20T12:32:57.791Z,46.00
2019-06-20T12:35:27.467Z,46.00
2019-06-20T12:37:57.392Z,45.50
2019-06-20T12:40:28.135Z,45.90
2019-06-20T12:42:57.930Z,44.90
2019-06-20T12:45:28.032Z,45.60
2019-06-20T12:47:58.034Z,46.30
2019-06-20T12:50:28.197Z,45.40
2019-06-20T12:52:58.185Z,45.20
2019-06-20T12:55:27.894Z,46.60
2019-06-20T12:57:57.637Z,47.90
2019-06-20T13:00:28.162Z,48.90
2019-06-20T13:02:57.993Z,47.30
2019-06-20T13:05:27.918Z,45.50
2019-06-20T13:07:57.689Z,46.90
2019-06-20T13:10:27.464Z,45.50
2019-06-20T13:12:57.236Z,45.00
2019-06-20T13:15:26.962Z,47.40
2019-06-20T13:17:57.013Z,46.80
2019-06-20T13:20:26.852Z,46.90
2019-06-20T13:23:00.653Z,45.70
2019-06-20T13:25:30.516Z,46.20
2019-06-20T13:28:02.190Z,47.30
2019-06-20T13:30:32.116Z,47.20
2019-06-20T13:33:01.907Z,47.60
2019-06-20T13:35:31.696Z,47.40
2019-06-20T13:38:01.685Z,48.20
2019-06-20T13:40:31.890Z,49.30
2019-06-20T13:43:01.775Z,50.80
2019-06-20T13:45:31.480Z,50.40
2019-06-20T13:48:02.041Z,50.60
2019-06-20T13:50:31.877Z,51.30
2019-06-20T13:53:01.749Z,51.20
2019-06-20T13:55:32.246Z,51.50
2019-06-20T13:58:02.062Z,51.40
2019-06-20T14:00:32.506Z,53.10
2019-06-20T14:03:02.431Z,52.60
2019-06-20T14:05:32.350Z,53.60
2019-06-20T14:08:02.392Z,53.90
2019-06-20T14:10:32.442Z,55.10
2019-06-20T14:13:15.564Z,59.30
2019-06-20T14:15:33.666Z,55.80
2019-06-20T14:18:03.358Z,55.40
2019-06-20T14:20:32.995Z,59.60
2019-06-20T14:23:02.858Z,59.80
2019-06-20T14:25:34.276Z,60.50
2019-06-20T14:28:04.202Z,55.20
2019-06-20T14:30:34.164Z,53.80
2019-06-20T14:33:03.897Z,55.20
2019-06-20T14:35:33.706Z,56.60
2019-06-20T14:38:03.540Z,55.90
2019-06-20T14:40:33.295Z,55.70
2019-06-20T14:43:03.006Z,56.30
2019-06-20T14:45:32.700Z,55.30
2019-06-20T14:48:04.086Z,56.50
2019-06-20T14:50:33.952Z,58.00
2019-06-20T14:53:03.820Z,57.60
2019-06-20T14:55:34.092Z,58.40
2019-06-20T14:58:04.030Z,59.10
2019-06-20T15:00:33.806Z,60.10
2019-06-20T15:03:03.689Z,60.00
2019-06-20T15:05:34.884Z,60.40
2019-06-20T15:08:05.216Z,60.00
2019-06-20T15:10:35.013Z,59.50
2019-06-20T15:13:04.870Z,58.10
2019-06-20T15:15:34.797Z,56.90
2019-06-20T15:18:04.734Z,55.90
2019-06-20T15:20:34.545Z,53.30
2019-06-20T15:23:04.336Z,51.50
2019-06-20T15:25:34.272Z,51.20
2019-06-20T15:28:04.249Z,50.30
2019-06-20T15:30:33.925Z,50.80
2019-06-20T15:33:10.040Z,50.90
2019-06-20T15:35:35.259Z,52.10
2019-06-20T15:38:05.332Z,51.90
2019-06-20T15:40:35.016Z,51.60
2019-06-20T15:43:04.792Z,50.60
2019-06-20T15:45:34.484Z,49.00
2019-06-20T15:48:04.557Z,47.90
2019-06-20T15:50:34.458Z,48.40
2019-06-20T15:53:04.455Z,48.70
2019-06-20T15:55:34.198Z,48.80
2019-06-20T15:58:04.048Z,49.00
2019-06-20T16:00:34.047Z,46.80
2019-06-20T16:03:10.005Z,47.50
2019-06-20T16:05:35.288Z,48.80
2019-06-20T16:08:05.568Z,49.40
2019-06-20T16:10:35.275Z,52.00
2019-06-20T16:13:05.204Z,52.80
2019-06-20T16:15:35.127Z,52.80
2019-06-20T16:18:05.003Z,53.60
2019-06-20T16:20:35.027Z,53.40
2019-06-20T16:23:05.103Z,53.10
2019-06-20T16:25:34.971Z,54.00
2019-06-20T16:28:06.569Z,51.10
2019-06-20T16:30:36.413Z,50.40
2019-06-20T16:33:06.217Z,47.90
2019-06-20T16:35:36.063Z,47.70
2019-06-20T16:38:08.318Z,47.10
2019-06-20T16:40:43.009Z,49.70
2019-06-20T16:43:12.913Z,51.20
2019-06-20T16:45:43.204Z,51.30
2019-06-20T16:48:13.237Z,51.00
2019-06-20T16:50:43.297Z,50.10
2019-06-20T16:53:12.982Z,50.30
2019-06-20T16:55:43.024Z,50.00
2019-06-20T16:58:13.045Z,48.10
2019-06-20T17:00:44.540Z,47.50
2019-06-20T17:03:15.797Z,48.50
2019-06-20T17:05:45.610Z,47.40
2019-06-20T17:08:15.547Z,49.90
2019-06-20T17:10:45.771Z,48.90
2019-06-20T17:13:15.793Z,48.50
2019-06-20T17:15:46.731Z,52.10
2019-06-20T17:18:17.457Z,50.40
2019-06-20T17:20:55.400Z,51.40
2019-06-20T17:23:28.173Z,51.60
2019-06-20T17:26:01.277Z,52.30
2019-06-20T17:28:29.986Z,52.60
2019-06-20T17:31:00.191Z,52.40
2019-06-20T17:33:32.746Z,52.50
2019-06-20T17:36:17.189Z,51.20
2019-06-20T17:38:34.230Z,51.80
2019-06-20T17:41:04.236Z,49.70
2019-06-20T17:43:34.049Z,50.30
2019-06-20T17:46:04.694Z,50.90
2019-06-20T17:48:34.482Z,49.70
2019-06-20T17:51:04.600Z,51.80
2019-06-20T17:53:35.166Z,51.90
2019-06-20T17:56:05.728Z,53.40
2019-06-20T17:58:36.914Z,53.70
2019-06-20T18:01:06.950Z,53.10
2019-06-20T18:03:37.159Z,54.00
2019-06-20T18:06:07.409Z,54.30
2019-06-20T18:08:38.526Z,54.60
2019-06-20T18:11:08.666Z,52.90
2019-06-20T18:13:39.319Z,53.50
2019-06-20T18:16:24.068Z,52.80
2019-06-20T18:18:41.769Z,53.30
2019-06-20T18:21:12.437Z,51.90
2019-06-20T18:23:42.302Z,52.90
2019-06-20T18:26:12.817Z,54.60
2019-06-20T18:28:44.890Z,53.50
2019-06-20T18:31:14.752Z,53.80
2019-06-20T18:33:46.340Z,54.70
2019-06-20T18:36:17.340Z,55.10
2019-06-20T18:38:47.889Z,56.10
2019-06-20T18:41:18.135Z,55.70
2019-06-20T18:43:47.811Z,55.20
2019-06-20T18:46:18.388Z,55.30
2019-06-20T18:48:48.464Z,55.50
2019-06-20T18:51:20.522Z,56.70
2019-06-20T18:53:50.732Z,56.40
2019-06-20T18:56:21.063Z,57.00
2019-06-20T18:58:51.780Z,56.80
2019-06-20T19:01:22.844Z,57.10
2019-06-20T19:03:53.262Z,57.10
2019-06-20T19:06:35.418Z,57.20
2019-06-20T19:08:55.274Z,57.60
2019-06-20T19:11:26.274Z,57.60
2019-06-20T19:13:55.940Z,58.10
2019-06-20T19:16:26.378Z,58.30
2019-06-20T19:18:56.053Z,58.10
2019-06-20T19:21:26.913Z,58.70
2019-06-20T19:23:56.603Z,58.80
2019-06-20T19:26:26.687Z,59.20
2019-06-20T19:28:57.610Z,59.70
2019-06-20T19:31:28.215Z,60.20
2019-06-20T19:33:58.642Z,60.80
2019-06-20T19:36:28.594Z,61.50
2019-06-20T19:38:58.745Z,61.90
2019-06-20T19:41:29.673Z,62.20
2019-06-20T19:44:00.476Z,62.20
2019-06-20T19:46:32.284Z,62.30
2019-06-20T19:49:04.561Z,62.30
2019-06-20T19:51:35.770Z,62.70
2019-06-20T19:54:05.807Z,63.50
2019-06-20T19:56:35.691Z,63.30
2019-06-20T19:59:06.674Z,61.90
2019-06-20T20:01:36.721Z,61.50
2019-06-20T20:04:08.289Z,60.30
2019-06-20T20:06:39.804Z,60.70
2019-06-20T20:09:10.951Z,60.90
2019-06-20T20:11:41.909Z,60.70
2019-06-20T20:14:12.251Z,59.50
2019-06-20T20:16:42.777Z,59.50
2019-06-20T20:19:13.290Z,59.10
2019-06-20T20:21:43.720Z,58.90
2019-06-20T20:24:14.066Z,59.10
2019-06-20T20:26:44.228Z,59.00
2019-06-20T20:29:14.673Z,59.70
2019-06-20T20:31:44.887Z,59.50
2019-06-20T20:34:15.315Z,59.80
2019-06-20T20:36:47.110Z,59.90
2019-06-20T20:39:17.100Z,59.90
2019-06-20T20:41:47.375Z,60.20
2019-06-20T20:44:17.638Z,60.10
2019-06-20T20:46:48.210Z,60.80
2019-06-20T20:49:18.592Z,61.30
2019-06-20T20:51:50.418Z,60.70
2019-06-20T20:54:21.796Z,61.30
2019-06-20T20:56:51.732Z,61.00
2019-06-20T20:59:21.526Z,61.70
2019-06-20T21:01:52.677Z,61.70
2019-06-20T21:04:22.762Z,62.00
2019-06-20T21:06:53.943Z,62.20
2019-06-20T21:09:24.139Z,63.50
2019-06-20T21:11:53.955Z,63.70
2019-06-20T21:14:23.638Z,63.20
2019-06-20T21:16:54.672Z,64.00
2019-06-20T21:19:26.886Z,63.80
2019-06-20T21:21:57.644Z,64.00
2019-06-20T21:24:28.092Z,63.50
2019-06-20T21:26:59.267Z,63.60
2019-06-20T21:29:30.112Z,62.90
2019-06-20T21:32:00.514Z,63.50
2019-06-20T21:34:30.895Z,63.90
2019-06-20T21:37:01.261Z,64.10
2019-06-20T21:39:32.738Z,64.10
2019-06-20T21:42:03.127Z,64.60
2019-06-20T21:44:33.559Z,66.10
2019-06-20T21:47:05.284Z,66.70
2019-06-20T21:49:35.961Z,66.00
2019-06-20T21:52:06.005Z,67.30
2019-06-20T21:54:35.829Z,68.90
2019-06-20T21:57:06.685Z,70.50
2019-06-20T21:59:37.817Z,70.70
2019-06-20T22:02:08.457Z,72.90
2019-06-20T22:04:53.676Z,75.60
2019-06-20T22:07:11.163Z,76.10
2019-06-20T22:09:41.940Z,78.20
2019-06-20T22:12:12.380Z,78.20
2019-06-20T22:14:42.597Z,80.20
2019-06-20T22:17:12.607Z,81.20
2019-06-20T22:19:42.384Z,83.90
2019-06-20T22:22:12.397Z,89.20
2019-06-20T22:24:42.238Z,89.40
2019-06-20T22:27:12.152Z,83.60
2019-06-20T22:29:42.316Z,86.70
2019-06-20T22:32:12.664Z,83.10
2019-06-20T22:34:42.537Z,84.60
2019-06-20T22:37:12.403Z,88.10
2019-06-20T22:39:42.582Z,87.50
2019-06-20T22:42:13.935Z,88.20
2019-06-20T22:44:43.851Z,87.60
2019-06-20T22:47:15.390Z,89.20
2019-06-20T22:49:46.528Z,88.40
2019-06-20T22:52:16.278Z,88.20
2019-06-20T22:54:46.039Z,89.00
2019-06-20T22:57:15.736Z,89.30
2019-06-20T22:59:46.622Z,90.10
2019-06-20T23:02:16.997Z,90.20
2019-06-20T23:04:48.028Z,89.80
2019-06-20T23:07:18.039Z,90.20
2019-06-20T23:09:48.202Z,91.00
2019-06-20T23:12:19.855Z,91.50
2019-06-20T23:14:49.749Z,92.00
2019-06-20T23:17:19.431Z,91.10
2019-06-20T23:19:50.256Z,90.40
2019-06-20T23:22:19.949Z,89.10
2019-06-20T23:24:49.742Z,89.30
2019-06-20T23:27:19.481Z,90.10
2019-06-20T23:29:49.194Z,89.50
2019-06-20T23:32:18.889Z,89.90
2019-06-20T23:34:48.592Z,89.30
2019-06-20T23:37:18.367Z,90.40
2019-06-20T23:39:48.100Z,90.50
2019-06-20T23:42:17.853Z,91.10
2019-06-20T23:44:47.641Z,90.70
2019-06-20T23:47:17.420Z,90.30
2019-06-20T23:49:47.306Z,90.20
2019-06-20T23:52:20.442Z,90.00
2019-06-20T23:54:49.251Z,89.60
2019-06-20T23:57:18.930Z,88.80
2019-06-20T23:59:49.272Z,89.10
